createdAt,value
2022-12-12T00:01:26.246Z,24.27
2022-12-12T00:03:55.074Z,25.23
2022-12-12T00:06:25.875Z,24.10
2022-12-12T00:08:54.377Z,24.23
2022-12-12T00:11:23.509Z,26.07
2022-12-12T00:13:52.761Z,29.10
2022-12-12T00:16:21.269Z,27.87
2022-12-12T00:18:49.937Z,25.73
2022-12-12T00:21:20.364Z,26.27
2022-12-12T00:23:50.069Z,26.20
2022-12-12T00:26:21.102Z,28.50
2022-12-12T00:28:49.669Z,27.90
2022-12-12T00:31:18.839Z,26.77
2022-12-12T00:33:50.059Z,28.10
2022-12-12T00:36:20.674Z,25.97
2022-12-12T00:38:50.654Z,26.10
2022-12-12T00:41:19.735Z,25.50
2022-12-12T00:43:48.604Z,26.20
2022-12-12T00:46:18.356Z,26.37
2022-12-12T00:48:46.713Z,26.90
2022-12-12T00:51:18.733Z,27.70
2022-12-12T00:53:51.495Z,24.77
2022-12-12T00:56:22.739Z,28.30
2022-12-12T00:58:51.667Z,27.23
2022-12-12T01:01:22.436Z,27.63
2022-12-12T01:03:50.882Z,28.07
2022-12-12T01:06:19.528Z,26.27
2022-12-12T01:08:47.892Z,25.97
2022-12-12T01:11:17.594Z,26.20
2022-12-12T01:13:48.628Z,28.77
2022-12-12T01:16:16.806Z,29.10
2022-12-12T01:18:45.141Z,27.30
2022-12-12T01:21:15.000Z,27.10
2022-12-12T01:23:43.247Z,27.47
2022-12-12T01:26:14.399Z,27.03
2022-12-12T01:28:43.234Z,26.70
2022-12-12T01:31:13.436Z,28.13
2022-12-12T01:33:45.920Z,28.43
2022-12-12T01:36:16.749Z,26.87
2022-12-12T01:38:46.074Z,26.83
2022-12-12T01:41:15.724Z,26.73
2022-12-12T01:43:43.987Z,25.90
2022-12-12T01:46:34.638Z,29.57
2022-12-12T01:49:07.874Z,27.87
2022-12-12T01:51:36.874Z,27.93
2022-12-12T01:54:09.827Z,27.47
2022-12-12T01:56:39.159Z,27.27
2022-12-12T01:59:09.823Z,28.67
2022-12-12T02:01:40.269Z,25.70
2022-12-12T02:04:10.439Z,27.53
2022-12-12T02:06:39.384Z,27.20
2022-12-12T02:09:13.015Z,27.27
2022-12-12T02:11:46.278Z,25.07
2022-12-12T02:14:17.715Z,26.73
2022-12-12T02:17:20.068Z,28.73
2022-12-12T02:20:19.643Z,28.13
2022-12-12T02:23:28.080Z,27.57
2022-12-12T02:26:17.877Z,26.77
2022-12-12T02:29:25.899Z,27.50
2022-12-12T02:32:00.447Z,27.63
2022-12-12T02:34:37.505Z,25.30
2022-12-12T02:37:12.342Z,27.40
2022-12-12T02:39:48.515Z,27.13
2022-12-12T02:42:27.166Z,28.40
2022-12-12T02:45:01.400Z,26.90
2022-12-12T02:47:33.349Z,28.17
2022-12-12T02:50:07.369Z,28.87
2022-12-12T02:52:35.881Z,26.80
2022-12-12T02:55:04.469Z,27.33
2022-12-12T02:57:33.303Z,26.80
2022-12-12T03:00:05.400Z,28.83
2022-12-12T03:03:16.514Z,27.67
2022-12-12T03:06:10.145Z,27.50
2022-12-12T03:08:52.643Z,26.83
2022-12-12T03:11:31.931Z,25.83
2022-12-12T03:14:04.445Z,26.97
2022-12-12T03:16:40.471Z,26.97
2022-12-12T03:19:16.656Z,25.43
2022-12-12T03:21:50.223Z,26.17
2022-12-12T03:24:24.402Z,26.43
2022-12-12T03:27:00.457Z,28.63
2022-12-12T03:29:32.341Z,28.37
2022-12-12T03:32:06.414Z,28.33
2022-12-12T03:34:39.497Z,27.23
2022-12-12T03:37:13.281Z,26.10
2022-12-12T03:39:47.270Z,27.27
2022-12-12T03:42:20.830Z,25.93
2022-12-12T03:44:54.003Z,26.73
2022-12-12T03:47:27.514Z,27.40
2022-12-12T03:50:03.602Z,26.27
2022-12-12T03:52:34.681Z,27.83
2022-12-12T03:55:09.303Z,27.90
2022-12-12T03:57:42.968Z,27.47
2022-12-12T04:00:15.367Z,26.30
2022-12-12T04:02:51.767Z,27.43
2022-12-12T04:05:25.207Z,26.30
2022-12-12T04:08:00.000Z,27.27
2022-12-12T04:10:51.356Z,25.97
2022-12-12T04:13:32.466Z,24.80
2022-12-12T04:16:05.678Z,26.43
2022-12-12T04:18:41.258Z,26.53
2022-12-12T04:21:38.469Z,27.10
2022-12-12T04:24:16.661Z,26.93
2022-12-12T04:26:50.561Z,25.83
2022-12-12T04:29:28.772Z,28.43
2022-12-12T04:32:04.717Z,30.47
2022-12-12T04:34:42.478Z,27.33
2022-12-12T04:37:16.761Z,28.40
2022-12-12T04:39:48.930Z,27.03
2022-12-12T04:42:22.319Z,30.93
2022-12-12T04:44:53.714Z,28.50
2022-12-12T04:47:22.754Z,29.60
2022-12-12T04:49:53.433Z,29.93
2022-12-12T04:52:25.352Z,29.97
2022-12-12T04:55:00.260Z,26.70
2022-12-12T04:57:32.974Z,28.20
2022-12-12T05:00:01.711Z,27.87
2022-12-12T05:02:35.890Z,30.77
2022-12-12T05:05:09.024Z,26.97
2022-12-12T05:07:41.447Z,29.20
2022-12-12T05:10:14.524Z,29.07
2022-12-12T05:12:45.360Z,27.70
2022-12-12T05:15:14.802Z,27.70
2022-12-12T05:17:46.230Z,29.23
2022-12-12T05:20:14.741Z,29.87
2022-12-12T05:22:44.187Z,29.90
2022-12-12T05:25:14.192Z,32.93
2022-12-12T05:27:42.638Z,30.13
2022-12-12T05:30:11.962Z,29.40
2022-12-12T05:32:40.605Z,29.97
2022-12-12T05:35:10.453Z,31.83
2022-12-12T05:37:38.678Z,28.80
2022-12-12T05:40:10.675Z,30.77
2022-12-12T05:42:38.920Z,29.40
2022-12-12T05:45:10.306Z,28.73
2022-12-12T05:47:38.700Z,26.40
2022-12-12T05:50:08.284Z,29.93
2022-12-12T05:52:36.616Z,27.87
2022-12-12T05:55:05.217Z,28.03
2022-12-12T05:57:35.240Z,29.27
2022-12-12T06:00:04.971Z,29.77
2022-12-12T06:02:33.222Z,31.57
2022-12-12T06:05:01.420Z,31.60
2022-12-12T06:07:29.531Z,31.37
2022-12-12T06:10:00.827Z,28.67
2022-12-12T06:12:28.881Z,30.80
2022-12-12T06:14:58.370Z,29.97
2022-12-12T06:17:31.341Z,32.83
2022-12-12T06:20:01.932Z,30.13
2022-12-12T06:22:30.166Z,30.33
2022-12-12T06:24:58.230Z,30.87
2022-12-12T06:27:26.362Z,32.60
2022-12-12T06:29:54.508Z,32.50
2022-12-12T06:32:24.383Z,31.27
2022-12-12T06:34:52.688Z,29.80
2022-12-12T06:37:20.772Z,28.50
2022-12-12T06:39:49.174Z,34.30
2022-12-12T06:42:17.438Z,27.03
2022-12-12T06:44:47.498Z,29.47
2022-12-12T06:47:15.667Z,29.07
2022-12-12T06:49:45.233Z,31.20
2022-12-12T06:52:13.742Z,29.07
2022-12-12T06:54:41.885Z,28.30
2022-12-12T06:57:12.926Z,32.20
2022-12-12T06:59:41.326Z,29.13
2022-12-12T07:02:12.143Z,26.53
2022-12-12T07:04:40.225Z,27.33
2022-12-12T07:07:09.754Z,27.30
2022-12-12T07:09:38.249Z,22.67
2022-12-12T07:12:06.687Z,27.97
2022-12-12T07:14:34.840Z,24.43
2022-12-12T07:17:02.969Z,28.00
2022-12-12T07:19:31.033Z,27.57
2022-12-12T07:22:04.189Z,25.87
2022-12-12T07:24:37.350Z,26.37
2022-12-12T07:27:07.112Z,29.90
2022-12-12T07:29:35.592Z,29.70
2022-12-12T07:32:04.250Z,28.10
2022-12-12T07:34:32.532Z,30.93
2022-12-12T07:37:03.077Z,42.73
2022-12-12T07:39:31.674Z,28.37
2022-12-12T07:42:01.643Z,28.37
2022-12-12T07:44:30.163Z,31.27
2022-12-12T07:46:59.068Z,27.90
2022-12-12T07:49:27.355Z,29.80
2022-12-12T07:51:55.613Z,30.93
2022-12-12T07:54:23.806Z,31.90
2022-12-12T07:56:52.978Z,31.23
2022-12-12T07:59:22.697Z,34.93
2022-12-12T08:01:51.035Z,28.90
2022-12-12T08:04:22.330Z,27.10
2022-12-12T08:06:55.661Z,25.20
2022-12-12T08:09:31.640Z,22.80
2022-12-12T08:12:00.901Z,23.13
2022-12-12T08:14:30.840Z,19.83
2022-12-12T08:16:59.186Z,17.10
2022-12-12T08:19:27.477Z,18.77
2022-12-12T08:21:58.709Z,17.63
2022-12-12T08:24:28.498Z,17.23
2022-12-12T08:26:56.866Z,14.60
2022-12-12T08:29:25.380Z,15.80
2022-12-12T08:31:55.118Z,17.67
2022-12-12T08:34:23.932Z,17.10
2022-12-12T08:36:52.553Z,16.73
2022-12-12T08:39:20.967Z,18.83
2022-12-12T08:41:51.407Z,20.20
2022-12-12T08:44:22.196Z,19.33
2022-12-12T08:46:51.406Z,20.10
2022-12-12T08:49:21.329Z,20.37
2022-12-12T08:51:51.424Z,21.53
2022-12-12T08:54:19.818Z,17.60
2022-12-12T08:56:48.571Z,45.73
2022-12-12T08:59:17.032Z,101.27
2022-12-12T09:01:45.304Z,37.50
2022-12-12T09:04:13.610Z,18.87
2022-12-12T09:06:43.291Z,21.40
2022-12-12T09:09:11.464Z,19.40
2022-12-12T09:11:40.100Z,20.93
2022-12-12T09:14:08.309Z,21.10
2022-12-12T09:16:36.632Z,20.00
2022-12-12T09:19:05.028Z,20.10
2022-12-12T09:21:33.383Z,21.80
2022-12-12T09:24:03.535Z,24.23
2022-12-12T09:26:32.256Z,22.60
2022-12-12T09:29:00.486Z,23.97
2022-12-12T09:31:28.689Z,19.03
2022-12-12T09:33:57.115Z,19.73
2022-12-12T09:36:26.086Z,25.23
2022-12-12T09:38:54.307Z,19.30
2022-12-12T09:41:27.108Z,18.77
2022-12-12T09:43:59.240Z,20.80
2022-12-12T09:46:36.314Z,18.47
2022-12-12T09:49:18.285Z,17.00
2022-12-12T09:51:52.189Z,17.43
2022-12-12T09:54:22.753Z,16.63
2022-12-12T09:57:06.198Z,17.33
2022-12-12T09:59:41.851Z,16.77
2022-12-12T10:02:31.047Z,13.93
2022-12-12T10:05:03.187Z,13.70
2022-12-12T10:07:42.678Z,14.97
2022-12-12T10:10:18.537Z,13.90
2022-12-12T10:12:49.007Z,22.70
2022-12-12T10:15:28.335Z,20.58
2022-12-12T10:18:05.731Z,20.13
2022-12-12T10:20:38.183Z,13.73
2022-12-12T10:23:15.986Z,14.90
2022-12-12T10:25:50.768Z,14.47
2022-12-12T10:28:22.789Z,14.10
2022-12-12T10:31:06.924Z,14.13
2022-12-12T10:33:47.495Z,12.30
2022-12-12T10:36:26.892Z,12.40
2022-12-12T10:39:09.655Z,12.63
2022-12-12T10:41:45.415Z,13.97
2022-12-12T10:44:26.801Z,12.20
2022-12-12T10:47:01.745Z,11.50
2022-12-12T10:49:35.197Z,13.23
2022-12-12T10:52:07.201Z,11.53
2022-12-12T10:54:50.061Z,12.87
2022-12-12T10:57:22.395Z,11.73
2022-12-12T10:59:57.587Z,14.63
2022-12-12T11:02:36.039Z,11.77
2022-12-12T11:05:11.084Z,14.90
2022-12-12T11:07:41.718Z,11.10
2022-12-12T11:10:26.753Z,11.38
2022-12-12T11:12:59.777Z,11.67
2022-12-12T11:15:35.055Z,11.23
2022-12-12T11:18:06.322Z,11.17
2022-12-12T11:20:34.940Z,11.63
2022-12-12T11:23:03.292Z,13.00
2022-12-12T11:25:32.842Z,11.57
2022-12-12T11:28:06.856Z,11.87
2022-12-12T11:30:42.713Z,13.03
2022-12-12T11:33:19.899Z,14.23
2022-12-12T11:35:53.447Z,14.57
2022-12-12T11:38:25.698Z,13.27
2022-12-12T11:41:02.244Z,14.00
2022-12-12T11:43:31.801Z,12.97
2022-12-12T11:46:08.720Z,13.97
2022-12-12T11:48:56.823Z,15.07
2022-12-12T11:51:36.857Z,13.93
2022-12-12T11:54:11.518Z,15.07
2022-12-12T11:56:48.500Z,13.53
2022-12-12T11:59:43.174Z,12.57
2022-12-12T12:02:45.524Z,13.80
2022-12-12T12:05:25.661Z,12.57
2022-12-12T12:08:08.439Z,16.83
2022-12-12T12:10:47.479Z,17.33
2022-12-12T12:13:33.834Z,16.83
2022-12-12T12:16:10.965Z,16.90
2022-12-12T12:18:55.591Z,52.03
2022-12-12T12:21:35.399Z,19.33
2022-12-12T12:24:38.405Z,15.93
2022-12-12T12:27:14.627Z,16.77
2022-12-12T12:30:01.195Z,16.70
2022-12-12T12:32:44.607Z,14.60
2022-12-12T12:35:29.505Z,15.33
2022-12-12T12:38:14.027Z,14.03
2022-12-12T12:41:10.280Z,17.10
2022-12-12T12:43:52.075Z,14.93
2022-12-12T12:46:31.216Z,15.13
2022-12-12T12:49:04.344Z,15.53
2022-12-12T12:51:37.890Z,16.20
2022-12-12T12:54:08.664Z,15.13
2022-12-12T12:56:44.004Z,18.07
2022-12-12T12:59:17.553Z,15.20
2022-12-12T13:01:48.424Z,14.67
2022-12-12T13:04:22.443Z,14.37
2022-12-12T13:06:58.715Z,15.10
2022-12-12T13:09:35.618Z,15.83
2022-12-12T13:12:22.344Z,14.13
2022-12-12T13:14:55.795Z,15.43
2022-12-12T13:17:30.223Z,15.07
2022-12-12T13:19:59.462Z,15.03
2022-12-12T13:22:36.707Z,15.03
2022-12-12T13:25:12.865Z,14.50
2022-12-12T13:27:46.385Z,15.03
2022-12-12T13:30:23.622Z,15.17
2022-12-12T13:33:18.809Z,14.33
2022-12-12T13:35:51.212Z,14.00
2022-12-12T13:38:25.565Z,14.10
2022-12-12T13:40:58.782Z,12.20
2022-12-12T13:43:31.829Z,13.20
2022-12-12T13:46:00.316Z,14.57
2022-12-12T13:48:46.793Z,10.83
2022-12-12T13:51:47.623Z,10.20
2022-12-12T13:54:49.401Z,11.30
2022-12-12T13:57:25.365Z,12.23
2022-12-12T14:00:21.592Z,13.23
2022-12-12T14:03:05.951Z,10.23
2022-12-12T14:05:39.913Z,107.23
2022-12-12T14:08:21.555Z,18.63
2022-12-12T14:10:58.944Z,19.43
2022-12-12T14:13:37.009Z,33.27
2022-12-12T14:16:08.728Z,15.37
2022-12-12T14:18:40.547Z,26.00
2022-12-12T14:21:13.903Z,14.60
2022-12-12T14:23:44.927Z,13.27
2022-12-12T14:26:52.660Z,11.90
2022-12-12T14:29:31.414Z,14.23
2022-12-12T14:32:18.501Z,15.43
2022-12-12T14:34:55.544Z,14.87
2022-12-12T14:37:39.786Z,14.47
2022-12-12T14:40:19.887Z,15.63
2022-12-12T14:43:18.964Z,14.17
2022-12-12T14:46:00.926Z,17.43
2022-12-12T14:51:28.969Z,17.63
2022-12-12T14:54:00.796Z,15.67
2022-12-12T14:56:32.343Z,18.57
2022-12-12T14:59:04.272Z,18.10
2022-12-12T15:01:35.383Z,20.57
2022-12-12T15:04:07.692Z,22.67
2022-12-12T15:06:40.902Z,22.30
2022-12-12T15:09:25.339Z,18.87
2022-12-12T15:11:56.082Z,24.33
2022-12-12T15:15:06.473Z,27.23
2022-12-12T15:17:39.876Z,23.30
2022-12-12T15:20:15.793Z,36.10
2022-12-12T15:22:54.160Z,26.90
2022-12-12T15:25:25.752Z,25.40
2022-12-12T15:27:56.478Z,27.00
2022-12-12T15:30:53.827Z,25.67
2022-12-12T15:33:26.794Z,21.00
2022-12-12T15:36:01.879Z,26.40
2022-12-12T15:38:33.372Z,25.97
2022-12-12T15:41:12.804Z,42.80
2022-12-12T15:43:43.378Z,28.20
2022-12-12T15:46:16.384Z,29.53
2022-12-12T15:48:45.640Z,26.03
2022-12-12T15:51:19.730Z,26.87
2022-12-12T15:53:55.387Z,27.43
2022-12-12T15:56:26.278Z,28.03
2022-12-12T15:58:58.648Z,26.20
2022-12-12T16:01:31.344Z,27.37
2022-12-12T16:04:01.297Z,26.60
2022-12-12T16:09:25.649Z,27.83
2022-12-12T16:11:55.211Z,25.77
2022-12-12T16:14:40.202Z,29.77
2022-12-12T16:17:15.244Z,24.53
2022-12-12T16:19:51.619Z,24.10
2022-12-12T16:22:33.925Z,23.87
2022-12-12T16:25:16.869Z,26.10
2022-12-12T16:27:48.758Z,23.50
2022-12-12T16:30:18.069Z,27.30
2022-12-12T16:32:50.698Z,30.47
2022-12-12T16:35:22.215Z,25.97
2022-12-12T16:37:54.592Z,31.30
2022-12-12T16:40:23.796Z,30.73
2022-12-12T16:43:10.829Z,27.63
2022-12-12T16:45:39.854Z,30.00
2022-12-12T16:48:16.051Z,27.23
2022-12-12T16:50:47.703Z,26.97
2022-12-12T16:53:16.564Z,28.00
2022-12-12T16:55:47.339Z,29.53
2022-12-12T16:58:16.765Z,28.73
2022-12-12T17:00:49.273Z,29.93
2022-12-12T17:03:19.404Z,30.83
2022-12-12T17:06:18.332Z,32.17
2022-12-12T17:08:48.096Z,29.40
2022-12-12T17:11:16.763Z,30.73
2022-12-12T17:13:49.345Z,37.33
2022-12-12T17:16:22.745Z,31.37
2022-12-12T17:18:56.724Z,30.37
2022-12-12T17:21:25.711Z,31.13
2022-12-12T17:23:54.499Z,31.80
2022-12-12T17:26:23.770Z,30.67
2022-12-12T17:28:52.306Z,33.13
2022-12-12T17:31:21.016Z,39.53
2022-12-12T17:33:51.450Z,30.87
2022-12-12T17:36:21.725Z,33.57
2022-12-12T17:39:00.861Z,31.57
2022-12-12T17:41:30.444Z,33.50
2022-12-12T17:43:59.673Z,31.47
2022-12-12T17:46:28.909Z,31.47
2022-12-12T17:49:02.160Z,29.87
2022-12-12T17:51:32.694Z,36.20
2022-12-12T17:54:01.420Z,36.53
2022-12-12T17:56:30.628Z,33.37
2022-12-12T17:58:59.544Z,33.93
2022-12-12T18:01:31.770Z,35.47
2022-12-12T18:04:03.407Z,37.60
2022-12-12T18:06:38.261Z,33.13
2022-12-12T18:09:09.170Z,32.50
2022-12-12T18:11:38.742Z,33.67
2022-12-12T18:14:09.116Z,36.60
2022-12-12T18:16:37.699Z,30.73
2022-12-12T18:19:06.248Z,30.30
2022-12-12T18:21:59.582Z,33.43
2022-12-12T18:24:34.354Z,29.50
2022-12-12T18:27:04.081Z,31.57
2022-12-12T18:29:32.906Z,28.80
2022-12-12T18:32:01.288Z,28.73
2022-12-12T18:34:29.513Z,33.17
2022-12-12T18:37:02.331Z,32.63
2022-12-12T18:39:30.491Z,30.23
2022-12-12T18:41:58.975Z,40.03
2022-12-12T18:44:27.092Z,41.13
2022-12-12T18:46:55.744Z,46.10
2022-12-12T18:49:24.476Z,47.27
2022-12-12T18:51:53.621Z,48.93
2022-12-12T18:54:23.343Z,39.60
2022-12-12T18:56:51.906Z,36.13
2022-12-12T18:59:19.969Z,38.93
2022-12-12T19:01:53.500Z,42.77
2022-12-12T19:04:23.652Z,36.63
2022-12-12T19:06:52.169Z,32.87
2022-12-12T19:09:22.194Z,33.93
2022-12-12T19:11:50.649Z,32.93
2022-12-12T19:14:19.239Z,34.03
2022-12-12T19:16:48.050Z,34.40
2022-12-12T19:19:16.800Z,33.23
2022-12-12T19:21:46.419Z,32.97
2022-12-12T19:24:14.837Z,35.30
2022-12-12T19:26:46.608Z,33.37
2022-12-12T19:29:17.585Z,35.10
2022-12-12T19:32:12.620Z,34.40
2022-12-12T19:34:47.486Z,34.20
2022-12-12T19:37:22.850Z,36.83
2022-12-12T19:39:53.623Z,44.33
2022-12-12T19:42:24.517Z,42.03
2022-12-12T19:44:56.203Z,40.43
2022-12-12T19:47:29.159Z,42.37
2022-12-12T19:49:57.361Z,43.33
2022-12-12T19:52:25.483Z,49.10
2022-12-12T19:54:54.247Z,44.47
2022-12-12T19:57:26.400Z,45.63
2022-12-12T19:59:54.741Z,49.13
2022-12-12T20:02:23.014Z,49.50
2022-12-12T20:04:51.433Z,40.07
2022-12-12T20:07:19.576Z,44.07
2022-12-12T20:09:50.643Z,43.97
2022-12-12T20:12:18.769Z,42.53
2022-12-12T20:14:48.559Z,42.13
2022-12-12T20:17:16.970Z,38.17
2022-12-12T20:19:47.311Z,37.07
2022-12-12T20:22:16.291Z,35.03
2022-12-12T20:24:45.229Z,37.03
2022-12-12T20:27:15.315Z,34.13
2022-12-12T20:29:44.441Z,36.80
2022-12-12T20:32:14.607Z,38.67
2022-12-12T20:34:43.190Z,35.63
2022-12-12T20:37:14.133Z,40.77
2022-12-12T20:39:46.470Z,36.00
2022-12-12T20:42:14.531Z,40.87
2022-12-12T20:44:42.582Z,35.00
2022-12-12T20:47:14.508Z,36.87
2022-12-12T20:49:44.471Z,38.30
2022-12-12T20:52:12.614Z,42.00
2022-12-12T20:54:40.723Z,35.63
2022-12-12T20:57:08.787Z,38.77
2022-12-12T20:59:37.713Z,38.53
2022-12-12T21:02:06.561Z,38.90
2022-12-12T21:04:35.937Z,35.00
2022-12-12T21:07:06.068Z,33.77
2022-12-12T21:09:34.229Z,38.87
2022-12-12T21:12:02.814Z,37.30
2022-12-12T21:14:33.044Z,35.10
2022-12-12T21:17:01.108Z,33.87
2022-12-12T21:19:29.217Z,40.87
2022-12-12T21:21:57.294Z,37.37
2022-12-12T21:24:28.126Z,40.33
2022-12-12T21:26:56.393Z,37.70
2022-12-12T21:29:24.446Z,40.13
2022-12-12T21:31:52.961Z,40.27
2022-12-12T21:34:22.635Z,35.77
2022-12-12T21:36:55.554Z,37.37
2022-12-12T21:39:29.489Z,35.47
2022-12-12T21:41:59.047Z,38.03
2022-12-12T21:44:27.464Z,35.80
2022-12-12T21:46:55.597Z,36.07
2022-12-12T21:49:30.839Z,36.63
2022-12-12T21:52:01.356Z,36.70
2022-12-12T21:54:30.477Z,35.13
2022-12-12T21:57:01.995Z,37.80
2022-12-12T21:59:30.990Z,36.93
2022-12-12T22:02:01.159Z,35.30
2022-12-12T22:04:30.438Z,37.50
2022-12-12T22:06:58.710Z,37.23
2022-12-12T22:09:27.975Z,36.97
2022-12-12T22:12:03.333Z,37.87
2022-12-12T22:14:34.913Z,43.30
2022-12-12T22:17:03.630Z,38.60
2022-12-12T22:19:34.718Z,40.60
2022-12-12T22:22:02.953Z,41.00
2022-12-12T22:24:31.078Z,39.90
2022-12-12T22:26:59.195Z,36.37
2022-12-12T22:29:27.489Z,36.00
2022-12-12T22:32:03.066Z,37.57
2022-12-12T22:34:31.384Z,39.70
2022-12-12T22:36:59.518Z,38.07
2022-12-12T22:39:29.277Z,38.63
2022-12-12T22:41:58.119Z,38.47
2022-12-12T22:44:27.511Z,41.33
2022-12-12T22:46:57.346Z,36.57
2022-12-12T22:49:27.734Z,38.90
2022-12-12T22:51:56.860Z,37.73
2022-12-12T22:54:25.779Z,38.23
2022-12-12T22:56:54.868Z,39.20
2022-12-12T22:59:22.938Z,37.60
2022-12-12T23:01:50.998Z,37.43
2022-12-12T23:04:20.605Z,38.63
2022-12-12T23:06:48.729Z,38.17
2022-12-12T23:09:23.128Z,38.47
2022-12-12T23:11:51.170Z,41.30
2022-12-12T23:14:22.797Z,38.23
2022-12-12T23:16:51.638Z,37.63
2022-12-12T23:19:26.073Z,38.00
2022-12-12T23:21:54.311Z,39.37
2022-12-12T23:24:22.428Z,36.20
2022-12-12T23:26:52.422Z,34.87
2022-12-12T23:29:21.304Z,35.33
2022-12-12T23:31:50.057Z,36.57
2022-12-12T23:34:23.473Z,33.70
2022-12-12T23:36:52.347Z,35.07
2022-12-12T23:39:20.706Z,35.20
2022-12-12T23:41:49.340Z,38.20
2022-12-12T23:44:19.952Z,35.37
2022-12-12T23:46:48.520Z,33.60
2022-12-12T23:49:18.998Z,33.10
2022-12-12T23:51:49.955Z,34.43
2022-12-12T23:54:20.158Z,32.97
2022-12-12T23:56:49.120Z,31.13
2022-12-12T23:59:18.603Z,31.67
